Time;durP1;ratioP1;P1;durP2;ratioP2;P2;SDS_P1;SDS_P2;PMS_P1;PMS_P2;Temp;Humidity;BMP_temperature;BMP_pressure;BME280_temperature;BME280_humidity;BME280_pressure;Samples;Min_cycle;Max_cycle;Signal;HPM_P1;HPM_P2
2021/10/11 08:11:18;;;;;;;41.53;21.75;;;;;;;5.82;89.97;101509.75;21119741;27;20395;-73
2021/10/11 08:21:20;;;;;;;36.97;20.90;;;;;;;6.56;87.76;101525.09;21120846;28;20530;-72
2021/10/11 08:31:22;;;;;;;37.80;21.65;;;;;;;7.05;87.01;101512.97;21118950;28;20178;-73
2021/10/11 08:41:24;;;;;;;36.63;21.80;;;;;;;7.35;86.76;101490.88;21118342;28;20044;-73
2021/10/11 08:51:25;;;;;;;33.17;20.95;;;;;;;7.85;85.45;101491.56;21118462;28;20048;-73
2021/10/11 09:01:27;;;;;;;32.05;20.58;;;;;;;8.12;84.80;101492.75;21117485;28;20439;-73
2021/10/11 09:17:21;;;;;;;35.53;20.13;;;;;;;8.70;83.25;101483.84;21129234;27;20392;-73
2021/10/11 09:27:23;;;;;;;28.45;19.05;;;;;;;8.82;82.98;101490.94;21015022;28;20134;-73
2021/10/11 09:37:34;;;;;;;30.00;20.02;;;;;;;8.90;84.59;101489.25;20866110;28;20095;-73
2021/10/11 09:47:38;;;;;;;28.05;17.40;;;;;;;9.54;81.44;101486.25;20867179;28;20519;-73
2021/10/11 09:57:40;;;;;;;25.58;16.40;;;;;;;10.23;79.97;101455.13;20863519;28;20049;-73
2021/10/11 10:07:46;;;;;;;25.27;16.25;;;;;;;10.79;76.73;101446.53;20860498;28;20045;-73
2021/10/11 10:18:18;;;;;;;25.80;16.35;;;;;;;10.99;76.85;101439.53;20864584;28;65813;-73
2021/10/11 10:28:20;;;;;;;23.73;15.85;;;;;;;11.59;74.61;101425.41;20821996;28;20478;-72
2021/10/11 10:38:21;;;;;;;26.23;15.77;;;;;;;11.68;73.80;101433.25;20821717;28;20195;-72
2021/10/11 10:48:27;;;;;;;23.35;13.75;;;;;;;11.77;73.59;101425.34;20820960;28;20057;-72
2021/10/11 10:58:28;;;;;;;26.67;15.13;;;;;;;11.43;74.58;101428.06;20820810;28;20045;-72
2021/10/11 11:08:30;;;;;;;25.65;14.82;;;;;;;11.21;75.63;101423.75;20818769;28;20060;-72
2021/10/11 11:18:31;;;;;;;24.00;15.23;;;;;;;11.24;76.40;101419.38;20819000;28;20049;-73
2021/10/11 11:28:35;;;;;;;27.27;15.60;;;;;;;11.25;77.09;101415.00;20819499;28;20062;-72
2021/10/11 11:38:38;;;;;;;22.70;14.82;;;;;;;11.43;76.63;101407.09;19863858;28;10000991;-73
2021/10/11 11:48:43;;;;;;;29.15;14.57;;;;;;;11.60;75.80;101395.69;20737810;28;20053;-72
2021/10/11 11:58:49;;;;;;;24.47;14.47;;;;;;;11.82;75.69;101402.59;20733918;28;20037;-73
2021/10/11 12:08:51;;;;;;;23.85;13.98;;;;;;;11.86;75.47;101385.97;20732370;28;20048;-73
2021/10/11 12:18:55;;;;;;;26.23;15.32;;;;;;;12.22;75.15;101386.66;20730959;28;20417;-72
2021/10/11 12:29:02;;;;;;;30.47;17.93;;;;;;;12.27;72.65;101384.84;20656269;28;20657;-71
2021/10/11 12:39:11;;;;;;;27.80;17.30;;;;;;;12.05;74.01;101379.72;20729650;28;20100;-71
2021/10/11 12:49:14;;;;;;;29.35;18.02;;;;;;;11.96;75.48;101390.28;20730276;28;20054;-71
2021/10/11 12:59:18;;;;;;;28.55;17.50;;;;;;;12.16;75.05;101389.28;20728405;28;20046;-71
2021/10/11 13:09:20;;;;;;;30.75;19.25;;;;;;;12.26;75.61;101388.34;20726716;28;20057;-71
2021/10/11 13:19:21;;;;;;;32.53;20.42;;;;;;;12.46;75.12;101383.84;20727084;28;20050;-71
2021/10/11 14:31:22;;;;;;;28.00;19.58;;;;;;;13.28;74.11;101347.16;20738411;28;20050;-71
2021/10/11 16:04:07;;;;;;;39.03;23.15;;;;;;;12.33;79.09;101334.91;20727190;28;20099;-70
2021/10/11 16:14:09;;;;;;;31.42;20.48;;;;;;;12.21;80.21;101337.63;20732250;28;20058;-67
2021/10/11 16:24:10;;;;;;;35.58;22.52;;;;;;;12.16;80.83;101336.78;20728666;28;20454;-67
2021/10/11 16:34:12;;;;;;;33.53;21.88;;;;;;;12.01;81.87;101341.25;20729037;28;20070;-66
2021/10/11 16:44:14;;;;;;;34.88;21.10;;;;;;;11.90;82.70;101339.59;20727555;28;20133;-67
2021/10/11 16:54:18;;;;;;;31.55;21.60;;;;;;;11.72;82.79;101353.66;20729370;28;20081;-66
2021/10/11 17:04:19;;;;;;;31.70;21.90;;;;;;;11.52;84.20;101352.00;20725303;28;20568;-67
2021/10/11 17:14:21;;;;;;;37.22;23.85;;;;;;;11.35;84.76;101348.56;20727523;28;20099;-67
2021/10/11 17:24:22;;;;;;;41.10;28.25;;;;;;;11.33;84.94;101365.19;20727969;28;20046;-67
2021/10/11 17:34:26;;;;;;;37.67;24.35;;;;;;;11.31;84.76;101370.44;20734855;28;20598;-67
2021/10/11 17:44:30;;;;;;;;;;;;;;;11.26;85.49;101375.69;20742879;28;20046;-67
2021/10/11 17:54:31;;;;;;;36.00;24.92;;;;;;;11.14;86.85;101366.97;20739634;28;19933;-66
2021/10/11 18:04:33;;;;;;;40.83;28.30;;;;;;;11.08;86.93;101369.63;20744822;28;20053;-66
2021/10/11 18:14:34;;;;;;;42.78;28.70;;;;;;;11.02;86.72;101371.38;20752158;28;20493;-67
2021/10/11 18:24:36;;;;;;;44.00;28.92;;;;;;;11.00;86.78;101370.50;20737720;28;20088;-67
2021/10/11 18:34:38;;;;;;;43.85;28.33;;;;;;;10.78;88.12;101368.81;20738946;28;20108;-66
2021/10/11 18:44:39;;;;;;;41.35;27.95;;;;;;;10.55;88.58;101375.81;20737048;28;20049;-67
2021/10/11 18:54:42;;;;;;;55.67;35.25;;;;;;;10.34;88.95;101369.66;20737709;28;20495;-67
2021/10/11 19:04:43;;;;;;;55.92;34.67;;;;;;;10.17;89.58;101371.38;20741276;28;20053;-66
2021/10/11 19:14:44;;;;;;;52.55;33.83;;;;;;;10.05;89.67;101380.06;20736134;28;20050;-66
2021/10/11 19:24:46;;;;;;;50.13;31.48;;;;;;;9.83;90.04;101387.00;20737065;28;20045;-66
2021/10/11 19:34:48;;;;;;;57.80;33.67;;;;;;;9.69;89.87;101388.69;20735484;28;20056;-67
2021/10/11 19:44:49;;;;;;;46.80;29.60;;;;;;;9.54;91.28;101388.63;20734479;28;20054;-67
2021/10/11 19:54:51;;;;;;;57.13;35.58;;;;;;;9.32;91.66;101383.28;20733608;28;20112;-67
2021/10/11 20:04:53;;;;;;;61.00;33.80;;;;;;;9.17;92.19;101372.75;20732997;28;20056;-66
2021/10/11 20:14:55;;;;;;;58.55;34.70;;;;;;;8.95;92.14;101388.28;20732202;28;20050;-65
2021/10/11 20:24:57;;;;;;;69.45;41.47;;;;;;;8.79;92.17;101373.38;20730982;28;20558;-66
2021/10/11 20:34:58;;;;;;;65.20;40.00;;;;;;;8.64;91.91;101381.09;20729599;28;20181;-66
2021/10/11 20:45:00;;;;;;;56.45;35.00;;;;;;;8.47;91.86;101374.00;20729461;28;20046;-66
2021/10/11 20:55:03;;;;;;;53.83;32.65;;;;;;;8.34;92.32;101361.69;20729531;28;20050;-66
2021/10/11 21:05:05;;;;;;;57.95;34.35;;;;;;;8.23;92.30;101358.09;20728145;28;20050;-66
2021/10/11 21:15:07;;;;;;;62.85;33.55;;;;;;;8.16;92.84;101351.09;20729328;28;20058;-67
2021/10/11 21:25:09;;;;;;;57.80;32.15;;;;;;;8.01;92.79;101353.53;20731332;28;20046;-67
2021/10/11 21:35:11;;;;;;;54.35;30.88;;;;;;;7.89;93.17;101336.91;20728649;28;20054;-67
2021/10/11 21:45:13;;;;;;;54.45;31.88;;;;;;;7.77;92.42;101342.00;20727693;28;20434;-67
2021/10/11 21:55:14;;;;;;;54.20;31.45;;;;;;;7.70;92.74;101332.34;20728066;28;20050;-66
2021/10/11 22:05:15;;;;;;;51.72;30.90;;;;;;;7.61;92.17;101324.41;20729974;28;20054;-67
2021/10/11 22:15:17;;;;;;;54.42;30.35;;;;;;;7.49;92.24;101309.53;20734903;28;20050;-66
2021/10/11 22:25:18;;;;;;;53.78;30.63;;;;;;;7.43;92.17;101330.31;20748954;28;20695;-66
2021/10/11 22:35:20;;;;;;;53.15;31.98;;;;;;;7.32;91.70;101309.31;20747637;28;20054;-67
2021/10/11 22:45:21;;;;;;;56.53;33.10;;;;;;;7.23;91.72;101326.56;20745599;28;20569;-66
2021/10/11 22:55:25;;;;;;;47.60;28.45;;;;;;;7.15;91.77;101324.75;20746414;28;20490;-66
2021/10/11 23:05:29;;;;;;;47.78;27.33;;;;;;;7.13;91.85;101309.94;20745045;28;20132;-67
2021/10/11 23:15:31;;;;;;;43.35;24.00;;;;;;;7.12;91.48;101303.00;20744150;28;20058;-67
2021/10/11 23:25:33;;;;;;;43.20;24.08;;;;;;;7.09;91.78;101297.75;20743596;28;20048;-66
2021/10/11 23:35:34;;;;;;;44.47;24.05;;;;;;;7.01;91.98;101304.59;20742704;28;20054;-66
2021/10/11 23:45:36;;;;;;;42.90;24.10;;;;;;;6.99;92.23;101301.06;20743488;28;20049;-66
2021/10/11 23:55:37;;;;;;;40.05;22.77;;;;;;;6.93;91.92;101287.13;20743977;28;20054;-66
